Time;durP1;ratioP1;P1;durP2;ratioP2;P2;SDS_P1;SDS_P2;PMS_P1;PMS_P2;Temp;Humidity;BMP_temperature;BMP_pressure;BME280_temperature;BME280_humidity;BME280_pressure;Samples;Min_cycle;Max_cycle;Signal;HPM_P1;HPM_P2
2023/06/24 00:02:05;;;;;;;3.20;2.83;;;;;;;;;;5055249;28;20039;-79
2023/06/24 00:04:31;;;;;;;2.80;2.60;;;;;;;;;;5074070;28;20025;-80
2023/06/24 00:06:59;;;;;;;4.40;3.10;;;;;;;;;;5055969;28;20033;-80
2023/06/24 00:09:25;;;;;;;4.95;3.10;;;;;;;;;;5055737;28;20024;-80
2023/06/24 00:11:51;;;;;;;4.75;2.78;;;;;;;;;;5073944;28;20024;-79
2023/06/24 00:14:16;;;;;;;4.90;2.90;;;;;;;;;;5056121;28;20135;-80
2023/06/24 00:16:42;;;;;;;3.13;2.83;;;;;;;;;;5073871;28;20483;-80
2023/06/24 00:19:08;;;;;;;3.08;2.67;;;;;;;;;;5073534;28;20032;-80
2023/06/24 00:21:33;;;;;;;3.90;2.90;;;;;;;;;;5073555;28;20024;-80
2023/06/24 00:24:02;;;;;;;3.13;2.83;;;;;;;;;;5055684;28;20017;-80
2023/06/24 00:26:27;;;;;;;3.30;3.00;;;;;;;;;;5039195;28;20024;-80
2023/06/24 00:28:53;;;;;;;3.40;3.10;;;;;;;;;;5055746;28;20031;-79
2023/06/24 00:31:20;;;;;;;3.30;2.75;;;;;;;;;;5038829;28;20540;-79
2023/06/24 00:33:45;;;;;;;3.63;2.55;;;;;;;;;;5038642;28;20394;-79
2023/06/24 00:36:11;;;;;;;2.88;2.65;;;;;;;;;;5073560;28;20029;-79
2023/06/24 00:38:37;;;;;;;3.63;2.78;;;;;;;;;;5038835;28;20024;-79
2023/06/24 00:41:03;;;;;;;4.15;3.05;;;;;;;;;;5073509;28;20032;-80
2023/06/24 00:43:29;;;;;;;3.15;2.85;;;;;;;;;;5038914;28;20039;-80
2023/06/24 00:45:55;;;;;;;3.55;2.90;;;;;;;;;;5055568;28;20363;-80
2023/06/24 00:48:21;;;;;;;3.88;2.92;;;;;;;;;;5055343;28;20451;-80
2023/06/24 00:50:49;;;;;;;3.85;3.30;;;;;;;;;;5073365;28;20032;-79
2023/06/24 00:53:17;;;;;;;3.33;2.97;;;;;;;;;;5055857;28;20570;-79
2023/06/24 00:55:45;;;;;;;3.30;3.00;;;;;;;;;;5039035;28;20036;-79
2023/06/24 00:58:15;;;;;;;4.32;3.30;;;;;;;;;;5072865;28;20558;-79
2023/06/24 01:00:41;;;;;;;4.03;3.03;;;;;;;;;;5073527;28;20056;-79
2023/06/24 01:03:08;;;;;;;3.80;2.80;;;;;;;;;;5055363;28;20106;-80
2023/06/24 01:05:35;;;;;;;3.65;3.08;;;;;;;;;;5055806;28;20029;-80
2023/06/24 01:08:01;;;;;;;3.65;2.83;;;;;;;;;;5073310;28;20031;-80
2023/06/24 01:10:27;;;;;;;3.17;2.88;;;;;;;;;;5073172;28;20036;-80
2023/06/24 01:12:53;;;;;;;3.67;2.92;;;;;;;;;;5056998;28;20025;-80
2023/06/24 01:15:20;;;;;;;3.50;2.95;;;;;;;;;;5042377;28;20025;-80
2023/06/24 01:18:02;;;;;;;3.33;3.03;;;;;;;;;;5042647;28;20082;-79
2023/06/24 01:20:34;;;;;;;3.72;3.17;;;;;;;;;;5059395;28;20467;-79
2023/06/24 01:23:22;;;;;;;3.35;2.88;;;;;;;;;;5076816;28;20040;-79
2023/06/24 01:26:21;;;;;;;3.63;3.33;;;;;;;;;;5077109;28;20490;-79
2023/06/24 01:29:02;;;;;;;4.32;3.03;;;;;;;;;;5076645;28;20032;-80
2023/06/24 01:31:43;;;;;;;3.40;2.85;;;;;;;;;;5076713;28;20028;-79
2023/06/24 01:34:14;;;;;;;4.47;2.67;;;;;;;;;;5076569;28;20573;-79
2023/06/24 01:36:44;;;;;;;4.75;3.15;;;;;;;;;;5076901;28;20167;-79
2023/06/24 01:39:12;;;;;;;3.13;2.83;;;;;;;;;;5076605;28;20434;-79
2023/06/24 01:41:43;;;;;;;4.72;3.20;;;;;;;;;;5058927;28;20471;-79
2023/06/24 01:44:10;;;;;;;3.38;3.08;;;;;;;;;;5076725;28;20420;-79
2023/06/24 01:46:37;;;;;;;3.28;2.97;;;;;;;;;;5058893;28;20078;-79
2023/06/24 01:49:04;;;;;;;4.03;3.17;;;;;;;;;;5042800;28;20490;-79
2023/06/24 01:51:31;;;;;;;3.22;2.92;;;;;;;;;;5058513;28;20426;-79
2023/06/24 01:54:05;;;;;;;3.20;2.90;;;;;;;;;;5076193;28;20086;-79
2023/06/24 01:56:32;;;;;;;5.93;2.92;;;;;;;;;;5058676;28;20020;-79
2023/06/24 01:58:58;;;;;;;3.33;2.88;;;;;;;;;;5058204;28;20049;-79
2023/06/24 02:01:24;;;;;;;4.00;2.85;;;;;;;;;;5058334;28;20025;-80
2023/06/24 02:03:51;;;;;;;4.00;2.80;;;;;;;;;;5058188;28;20498;-80
2023/06/24 02:06:17;;;;;;;4.85;3.00;;;;;;;;;;5041456;28;20060;-80
2023/06/24 02:08:43;;;;;;;3.30;3.00;;;;;;;;;;5058359;28;20017;-80
2023/06/24 02:11:09;;;;;;;3.83;2.83;;;;;;;;;;5041355;28;20024;-79
2023/06/24 02:13:35;;;;;;;3.67;2.85;;;;;;;;;;5058213;28;20159;-80
2023/06/24 02:16:03;;;;;;;3.15;2.85;;;;;;;;;;5041293;28;20066;-80
2023/06/24 02:18:28;;;;;;;3.40;3.08;;;;;;;;;;5041437;28;20356;-80
2023/06/24 02:20:56;;;;;;;2.78;2.58;;;;;;;;;;5075624;28;20039;-79
2023/06/24 02:23:22;;;;;;;3.17;2.80;;;;;;;;;;5057434;28;20033;-80
2023/06/24 02:25:48;;;;;;;4.78;2.75;;;;;;;;;;5057420;28;20021;-80
2023/06/24 02:28:14;;;;;;;3.03;2.67;;;;;;;;;;5041197;28;20043;-80
2023/06/24 02:30:41;;;;;;;3.03;2.80;;;;;;;;;;5075580;28;20214;-80
2023/06/24 02:33:06;;;;;;;3.65;2.88;;;;;;;;;;5040964;28;20074;-80
2023/06/24 02:35:32;;;;;;;4.10;2.92;;;;;;;;;;5057773;28;20029;-80
2023/06/24 02:37:57;;;;;;;4.32;2.80;;;;;;;;;;5057825;28;20028;-79
2023/06/24 02:40:23;;;;;;;3.65;2.97;;;;;;;;;;5040917;28;20025;-80
2023/06/24 02:42:48;;;;;;;4.63;3.10;;;;;;;;;;5057643;28;20063;-80
2023/06/24 02:45:14;;;;;;;4.15;2.80;;;;;;;;;;5075580;28;20374;-80
2023/06/24 02:47:42;;;;;;;5.20;2.83;;;;;;;;;;5040771;28;20494;-80
2023/06/24 02:50:08;;;;;;;3.22;2.92;;;;;;;;;;5075591;28;20033;-79
2023/06/24 02:52:36;;;;;;;3.50;2.72;;;;;;;;;;5075141;28;20029;-79
2023/06/24 02:55:02;;;;;;;3.38;2.70;;;;;;;;;;5057640;28;20074;-79
2023/06/24 02:57:28;;;;;;;3.05;2.80;;;;;;;;;;5056943;28;20057;-79
2023/06/24 02:59:53;;;;;;;3.03;2.67;;;;;;;;;;5057070;28;20024;-79
2023/06/24 03:02:19;;;;;;;5.07;2.88;;;;;;;;;;5040381;28;20115;-79
2023/06/24 03:04:44;;;;;;;4.72;3.08;;;;;;;;;;5057144;28;20036;-79
2023/06/24 03:07:10;;;;;;;3.67;2.75;;;;;;;;;;5057003;28;20601;-79
2023/06/24 03:09:36;;;;;;;3.80;2.85;;;;;;;;;;5057047;28;20135;-79
2023/06/24 03:12:02;;;;;;;5.32;2.63;;;;;;;;;;5056851;28;20124;-79
2023/06/24 03:14:27;;;;;;;3.47;2.60;;;;;;;;;;5074981;28;20116;-79
2023/06/24 03:16:53;;;;;;;3.00;2.70;;;;;;;;;;5056627;28;20090;-79
2023/06/24 03:19:18;;;;;;;5.25;2.90;;;;;;;;;;5040053;28;20035;-79
2023/06/24 03:21:43;;;;;;;3.10;2.80;;;;;;;;;;5074515;28;20037;-79
2023/06/24 03:24:09;;;;;;;3.55;2.95;;;;;;;;;;5074479;28;20376;-79
2023/06/24 03:26:35;;;;;;;5.80;3.20;;;;;;;;;;5039847;28;20039;-79
2023/06/24 03:29:01;;;;;;;3.20;2.90;;;;;;;;;;5056335;28;20127;-80
2023/06/24 03:31:26;;;;;;;3.30;3.00;;;;;;;;;;5039877;28;20518;-80
2023/06/24 03:33:52;;;;;;;3.15;2.65;;;;;;;;;;5056333;28;20032;-80
2023/06/24 03:36:17;;;;;;;5.38;2.65;;;;;;;;;;5056536;28;20108;-79
2023/06/24 03:38:42;;;;;;;3.60;2.95;;;;;;;;;;5074012;28;20480;-79
2023/06/24 03:41:08;;;;;;;3.38;2.53;;;;;;;;;;5039614;28;20033;-79
2023/06/24 03:43:33;;;;;;;3.22;2.60;;;;;;;;;;5073990;28;20028;-79
2023/06/24 03:46:00;;;;;;;3.10;2.80;;;;;;;;;;5056656;28;20055;-79
2023/06/24 03:48:25;;;;;;;4.63;2.90;;;;;;;;;;5040199;28;20044;-79
2023/06/24 03:50:51;;;;;;;3.10;2.60;;;;;;;;;;5056266;28;20082;-79
2023/06/24 03:53:16;;;;;;;4.13;3.08;;;;;;;;;;5039735;28;20035;-80
2023/06/24 03:55:41;;;;;;;4.88;2.90;;;;;;;;;;5055915;28;20040;-80
2023/06/24 03:58:08;;;;;;;2.72;2.53;;;;;;;;;;5073961;28;20052;-80
2023/06/24 04:00:33;;;;;;;3.33;2.67;;;;;;;;;;5055686;28;20127;-79
2023/06/24 04:03:01;;;;;;;3.00;2.70;;;;;;;;;;5073858;28;20120;-79
2023/06/24 04:05:26;;;;;;;3.13;2.83;;;;;;;;;;5040305;28;20104;-79
2023/06/24 04:07:52;;;;;;;2.95;2.50;;;;;;;;;;5039427;28;20107;-79
2023/06/24 04:10:18;;;;;;;3.10;2.80;;;;;;;;;;5055991;28;20127;-79
2023/06/24 04:12:43;;;;;;;3.15;2.83;;;;;;;;;;5056299;28;20036;-80
2023/06/24 04:15:09;;;;;;;3.90;3.00;;;;;;;;;;5055930;28;20037;-80
2023/06/24 04:17:35;;;;;;;2.90;2.60;;;;;;;;;;5074061;28;20040;-79
2023/06/24 04:20:02;;;;;;;3.10;2.80;;;;;;;;;;5022700;28;20032;-80
2023/06/24 04:22:27;;;;;;;3.55;2.88;;;;;;;;;;5074352;28;20029;-80
2023/06/24 04:24:53;;;;;;;3.05;2.75;;;;;;;;;;5055832;28;20489;-80
2023/06/24 04:27:18;;;;;;;6.72;2.83;;;;;;;;;;5056076;28;20390;-80
2023/06/24 04:29:43;;;;;;;2.85;2.53;;;;;;;;;;5055739;28;20086;-80
2023/06/24 04:32:09;;;;;;;4.88;2.92;;;;;;;;;;5055642;28;20040;-80
2023/06/24 04:34:34;;;;;;;5.25;2.92;;;;;;;;;;5073579;28;20498;-80
2023/06/24 04:37:00;;;;;;;3.78;2.75;;;;;;;;;;5055611;28;20033;-80
2023/06/24 04:39:25;;;;;;;3.05;2.75;;;;;;;;;;5038978;28;20489;-80
2023/06/24 04:41:50;;;;;;;3.33;2.88;;;;;;;;;;5055347;28;20119;-80
2023/06/24 04:44:16;;;;;;;2.97;2.70;;;;;;;;;;5055606;28;20024;-79
2023/06/24 04:46:41;;;;;;;3.10;2.80;;;;;;;;;;5055482;28;20029;-79
2023/06/24 04:49:07;;;;;;;3.72;2.95;;;;;;;;;;5055891;28;20028;-79
2023/06/24 04:51:32;;;;;;;3.55;3.03;;;;;;;;;;5038854;28;20028;-79
2023/06/24 04:53:58;;;;;;;4.20;3.00;;;;;;;;;;5073389;28;20032;-79
2023/06/24 04:56:24;;;;;;;3.05;2.70;;;;;;;;;;5055706;28;20033;-80
2023/06/24 04:58:50;;;;;;;3.28;2.92;;;;;;;;;;5025130;28;20470;-79
2023/06/24 05:01:15;;;;;;;3.70;2.90;;;;;;;;;;5035419;28;20041;-79
2023/06/24 05:03:40;;;;;;;3.10;2.80;;;;;;;;;;5035549;28;20029;-79
2023/06/24 05:06:06;;;;;;;3.03;2.70;;;;;;;;;;5002546;28;20021;-79
2023/06/24 05:08:31;;;;;;;3.47;2.72;;;;;;;;;;5035619;28;20392;-80
2023/06/24 05:10:56;;;;;;;4.90;2.78;;;;;;;;;;5053315;28;20029;-80
2023/06/24 05:13:23;;;;;;;3.78;3.15;;;;;;;;;;5053574;28;20063;-80
2023/06/24 05:15:48;;;;;;;3.17;2.88;;;;;;;;;;5018649;28;20464;-79
2023/06/24 05:18:13;;;;;;;5.03;2.88;;;;;;;;;;5053462;28;20044;-79
2023/06/24 05:20:39;;;;;;;4.55;2.85;;;;;;;;;;5053074;28;20603;-80
2023/06/24 05:23:04;;;;;;;3.47;3.17;;;;;;;;;;5052882;28;20119;-79
2023/06/24 05:25:29;;;;;;;3.03;2.72;;;;;;;;;;5035247;28;20169;-80
2023/06/24 05:27:55;;;;;;;3.15;2.85;;;;;;;;;;5035064;28;20039;-78
2023/06/24 05:30:20;;;;;;;3.75;3.10;;;;;;;;;;5002245;28;20391;-80
2023/06/24 05:32:46;;;;;;;4.07;2.90;;;;;;;;;;5035090;28;20075;-79
2023/06/24 05:35:11;;;;;;;3.63;2.80;;;;;;;;;;5035309;28;20026;-79
2023/06/24 05:37:36;;;;;;;3.80;3.03;;;;;;;;;;5053071;28;20033;-77
2023/06/24 05:40:03;;;;;;;3.60;2.72;;;;;;;;;;5053074;28;20029;-77
2023/06/24 05:42:28;;;;;;;4.05;2.60;;;;;;;;;;5035286;28;20444;-80
2023/06/24 05:44:53;;;;;;;9.35;3.13;;;;;;;;;;5053252;28;20087;-78
2023/06/24 05:47:19;;;;;;;5.95;3.20;;;;;;;;;;5053081;28;20039;-78
2023/06/24 05:49:44;;;;;;;22.58;3.78;;;;;;;;;;5052734;28;20037;-79
2023/06/24 05:52:11;;;;;;;9.32;3.15;;;;;;;;;;5052617;28;20111;-78
2023/06/24 05:54:37;;;;;;;9.32;3.17;;;;;;;;;;5034989;28;20094;-79
2023/06/24 05:57:05;;;;;;;11.30;3.15;;;;;;;;;;5035051;28;20516;-78
2023/06/24 05:59:31;;;;;;;6.68;3.00;;;;;;;;;;5073174;28;20048;-79
2023/06/24 06:01:56;;;;;;;9.85;3.40;;;;;;;;;;5058741;28;20025;-80
2023/06/24 06:04:22;;;;;;;4.65;2.72;;;;;;;;;;5076844;28;20035;-79
2023/06/24 06:06:47;;;;;;;4.30;2.65;;;;;;;;;;5058444;28;20112;-79
2023/06/24 06:09:12;;;;;;;4.85;2.88;;;;;;;;;;5058658;28;20451;-78
2023/06/24 06:11:38;;;;;;;4.43;2.65;;;;;;;;;;5076478;28;20094;-79
2023/06/24 06:14:03;;;;;;;5.93;2.30;;;;;;;;;;5058596;28;20025;-79
2023/06/24 06:16:29;;;;;;;3.80;3.10;;;;;;;;;;5076147;28;20025;-79
2023/06/24 06:18:54;;;;;;;2.85;2.53;;;;;;;;;;5058497;28;20471;-79
2023/06/24 06:21:19;;;;;;;2.67;2.40;;;;;;;;;;5058122;28;20498;-79
2023/06/24 06:23:45;;;;;;;7.05;2.78;;;;;;;;;;5058264;28;20035;-79
2023/06/24 06:26:10;;;;;;;4.13;2.70;;;;;;;;;;5076188;28;20036;-79
2023/06/24 06:28:36;;;;;;;6.25;3.00;;;;;;;;;;5058005;28;20033;-80
2023/06/24 06:31:01;;;;;;;4.15;2.30;;;;;;;;;;5057976;28;20032;-79
2023/06/24 06:33:26;;;;;;;2.78;2.22;;;;;;;;;;5076142;28;20052;-79
2023/06/24 06:35:52;;;;;;;5.03;2.60;;;;;;;;;;5075979;28;20380;-79
2023/06/24 06:38:17;;;;;;;5.70;2.28;;;;;;;;;;5075973;28;20118;-78
2023/06/24 06:40:43;;;;;;;7.10;2.35;;;;;;;;;;5058372;28;20368;-82
2023/06/24 06:43:08;;;;;;;3.20;2.20;;;;;;;;;;5057799;28;20391;-81
2023/06/24 06:45:33;;;;;;;2.17;1.98;;;;;;;;;;5076045;28;20020;-80
2023/06/24 06:47:59;;;;;;;3.08;2.22;;;;;;;;;;5041647;28;20123;-81
2023/06/24 06:50:24;;;;;;;6.10;3.10;;;;;;;;;;5041248;28;20032;-82
2023/06/24 06:52:49;;;;;;;4.18;2.65;;;;;;;;;;5075995;28;20024;-80
2023/06/24 06:55:15;;;;;;;3.83;2.25;;;;;;;;;;5057515;28;20115;-81
2023/06/24 06:57:40;;;;;;;6.03;2.33;;;;;;;;;;5036707;28;20496;-81
2023/06/24 07:00:06;;;;;;;4.82;2.33;;;;;;;;;;5037917;28;20036;-82
2023/06/24 07:02:32;;;;;;;3.17;2.05;;;;;;;;;;5055179;28;20087;-80
2023/06/24 07:04:59;;;;;;;6.88;2.00;;;;;;;;;;5037327;28;20383;-81
2023/06/24 07:07:24;;;;;;;2.85;1.90;;;;;;;;;;5055170;28;20025;-81
2023/06/24 07:09:49;;;;;;;4.20;2.40;;;;;;;;;;5037141;28;20039;-82
2023/06/24 07:12:15;;;;;;;2.55;1.90;;;;;;;;;;5037416;28;20086;-81
2023/06/24 07:14:40;;;;;;;3.42;1.92;;;;;;;;;;5055001;28;20490;-81
2023/06/24 07:17:07;;;;;;;3.85;1.88;;;;;;;;;;5037111;28;20400;-81
2023/06/24 07:19:32;;;;;;;2.85;1.85;;;;;;;;;;5037301;28;20059;-80
2023/06/24 07:21:58;;;;;;;3.50;2.45;;;;;;;;;;5055051;28;20099;-81
2023/06/24 07:24:23;;;;;;;4.22;2.20;;;;;;;;;;5054925;28;20021;-81
2023/06/24 07:26:48;;;;;;;2.45;1.90;;;;;;;;;;5055574;28;20033;-81
2023/06/24 07:29:14;;;;;;;3.22;1.90;;;;;;;;;;5037236;28;20031;-79
2023/06/24 07:31:39;;;;;;;2.13;1.83;;;;;;;;;;5054838;28;20036;-79
2023/06/24 07:34:05;;;;;;;2.80;1.70;;;;;;;;;;5037315;28;20387;-79
2023/06/24 07:36:30;;;;;;;3.33;2.00;;;;;;;;;;5055043;28;20124;-78
2023/06/24 07:38:56;;;;;;;4.10;2.13;;;;;;;;;;5055193;28;20096;-78
2023/06/24 07:41:21;;;;;;;2.55;1.80;;;;;;;;;;5020541;28;20448;-79
2023/06/24 07:43:46;;;;;;;3.00;1.75;;;;;;;;;;5020434;28;20443;-78
2023/06/24 07:46:12;;;;;;;4.43;2.10;;;;;;;;;;5054545;28;20029;-78
2023/06/24 07:48:37;;;;;;;5.10;2.13;;;;;;;;;;5054826;28;20429;-80
2023/06/24 07:51:03;;;;;;;2.58;1.70;;;;;;;;;;5037564;28;20025;-80
2023/06/24 07:53:28;;;;;;;2.95;1.80;;;;;;;;;;5036850;28;20017;-79
2023/06/24 07:55:53;;;;;;;2.33;1.77;;;;;;;;;;5036704;28;20037;-81
2023/06/24 07:58:19;;;;;;;2.30;1.70;;;;;;;;;;5045503;28;20058;-80
2023/06/24 08:00:45;;;;;;;3.40;1.80;;;;;;;;;;5056559;28;20036;-80
2023/06/24 08:03:11;;;;;;;2.53;2.00;;;;;;;;;;5056158;28;20044;-81
2023/06/24 08:05:38;;;;;;;2.00;1.80;;;;;;;;;;5056490;28;20095;-81
2023/06/24 08:08:04;;;;;;;2.50;1.88;;;;;;;;;;5072824;28;20028;-81
2023/06/24 08:10:30;;;;;;;3.20;2.03;;;;;;;;;;5073406;28;20028;-82
2023/06/24 08:12:55;;;;;;;3.45;1.92;;;;;;;;;;5055453;28;20035;-81
2023/06/24 08:15:20;;;;;;;4.22;1.80;;;;;;;;;;5073107;28;20029;-81
2023/06/24 08:17:52;;;;;;;2.92;1.95;;;;;;;;;;5073260;28;20124;-82
2023/06/24 08:20:17;;;;;;;2.90;1.98;;;;;;;;;;5055278;28;20029;-81
2023/06/24 08:22:42;;;;;;;4.82;2.53;;;;;;;;;;5054684;28;20036;-81
2023/06/24 08:25:08;;;;;;;4.25;2.00;;;;;;;;;;5055739;28;20032;-81
2023/06/24 08:27:33;;;;;;;2.78;1.95;;;;;;;;;;5073909;28;20120;-81
2023/06/24 08:29:59;;;;;;;6.90;1.90;;;;;;;;;;5073876;28;20032;-81
2023/06/24 08:32:24;;;;;;;12.93;1.70;;;;;;;;;;5039575;28;20162;-81
2023/06/24 08:34:50;;;;;;;3.58;1.98;;;;;;;;;;5055911;28;20037;-80
2023/06/24 08:37:15;;;;;;;3.20;1.95;;;;;;;;;;5039135;28;20064;-79
2023/06/24 08:39:41;;;;;;;3.33;1.95;;;;;;;;;;5073475;28;20036;-79
2023/06/24 08:42:06;;;;;;;2.00;1.63;;;;;;;;;;5055608;28;20039;-81
2023/06/24 08:44:32;;;;;;;2.42;1.83;;;;;;;;;;5039106;28;20024;-81
2023/06/24 08:46:57;;;;;;;2.00;1.80;;;;;;;;;;5056166;28;20035;-81
2023/06/24 08:49:28;;;;;;;2.55;1.77;;;;;;;;;;5039668;28;20054;-81
2023/06/24 08:52:04;;;;;;;2.97;1.73;;;;;;;;;;5056247;28;20467;-81
2023/06/24 08:54:31;;;;;;;2.22;1.77;;;;;;;;;;5056512;28;20041;-81
2023/06/24 08:56:56;;;;;;;2.67;1.70;;;;;;;;;;5056013;28;20411;-81
2023/06/24 08:59:22;;;;;;;3.53;2.00;;;;;;;;;;5073502;28;20052;-80
2023/06/24 09:01:48;;;;;;;2.45;1.73;;;;;;;;;;5055617;28;20035;-81
2023/06/24 09:04:13;;;;;;;1.92;1.60;;;;;;;;;;5073373;28;20467;-81
2023/06/24 09:06:39;;;;;;;1.85;1.55;;;;;;;;;;5038753;28;20185;-81
2023/06/24 09:09:04;;;;;;;3.33;2.03;;;;;;;;;;5073508;28;20044;-81
2023/06/24 09:11:31;;;;;;;2.67;1.70;;;;;;;;;;5055698;28;20055;-81
2023/06/24 09:13:58;;;;;;;2.58;1.60;;;;;;;;;;5055689;28;20475;-81
2023/06/24 09:16:24;;;;;;;2.55;1.77;;;;;;;;;;5055408;28;20467;-81
2023/06/24 09:18:50;;;;;;;4.18;1.85;;;;;;;;;;5073535;28;20036;-81
2023/06/24 09:21:24;;;;;;;1.80;1.70;;;;;;;;;;5055171;28;20098;-81
2023/06/24 09:23:54;;;;;;;2.53;1.90;;;;;;;;;;5055934;28;20395;-81
2023/06/24 09:26:30;;;;;;;2.08;1.60;;;;;;;;;;5073383;28;20032;-81
2023/06/24 09:28:57;;;;;;;1.80;1.65;;;;;;;;;;5073119;28;20103;-82
2023/06/24 09:31:23;;;;;;;1.70;1.60;;;;;;;;;;5073041;28;20028;-82
2023/06/24 09:33:48;;;;;;;2.05;1.55;;;;;;;;;;5057061;28;20107;-81
2023/06/24 09:36:15;;;;;;;1.50;1.40;;;;;;;;;;5059372;28;20120;-82
2023/06/24 09:38:42;;;;;;;3.50;1.80;;;;;;;;;;5059439;28;20060;-81
2023/06/24 09:41:08;;;;;;;1.70;1.60;;;;;;;;;;5042280;28;20111;-84
2023/06/24 09:43:39;;;;;;;2.42;1.70;;;;;;;;;;5076879;28;20039;-80
2023/06/24 09:46:04;;;;;;;2.10;1.75;;;;;;;;;;5059575;28;20440;-80
2023/06/24 09:48:30;;;;;;;1.80;1.70;;;;;;;;;;5059730;28;20107;-82
2023/06/24 09:51:02;;;;;;;1.88;1.77;;;;;;;;;;5058814;28;20086;-83
2023/06/24 09:53:34;;;;;;;3.05;1.90;;;;;;;;;;5059024;28;20025;-83
2023/06/24 09:56:02;;;;;;;2.30;2.00;;;;;;;;;;5041996;28;20032;-82
2023/06/24 09:58:36;;;;;;;2.05;1.85;;;;;;;;;;5035627;28;20103;-83
2023/06/24 10:01:04;;;;;;;4.45;1.80;;;;;;;;;;5038780;28;20041;-82
2023/06/24 10:03:34;;;;;;;3.08;2.10;;;;;;;;;;5038998;28;20104;-80
2023/06/24 10:06:03;;;;;;;3.20;1.83;;;;;;;;;;5039081;28;20029;-81
2023/06/24 10:08:30;;;;;;;2.80;2.00;;;;;;;;;;5039006;28;20025;-82
2023/06/24 10:10:56;;;;;;;3.83;2.00;;;;;;;;;;5038613;28;20048;-81
2023/06/24 10:13:21;;;;;;;3.88;1.90;;;;;;;;;;5056686;28;20472;-81
2023/06/24 10:15:47;;;;;;;2.85;1.88;;;;;;;;;;5038701;28;20491;-82
2023/06/24 10:18:30;;;;;;;2.35;2.00;;;;;;;;;;5038554;28;20093;-82
2023/06/24 10:20:56;;;;;;;;;;;;;;;;;;5056892;28;20040;-81
2023/06/24 10:23:21;;;;;;;5.53;1.77;;;;;;;;;;5022008;28;19909;-81
2023/06/24 10:25:47;;;;;;;5.35;2.22;;;;;;;;;;5038506;28;20029;-81
2023/06/24 10:28:13;;;;;;;3.97;2.10;;;;;;;;;;5038215;28;20029;-81
2023/06/24 10:30:38;;;;;;;5.43;2.08;;;;;;;;;;5056079;28;20498;-81
2023/06/24 10:33:03;;;;;;;3.40;2.40;;;;;;;;;;5038457;28;20031;-81
2023/06/24 10:35:34;;;;;;;2.05;1.80;;;;;;;;;;5037842;28;20037;-81
2023/06/24 10:38:00;;;;;;;5.07;2.05;;;;;;;;;;5022086;28;20060;-81
2023/06/24 10:40:42;;;;;;;5.28;2.50;;;;;;;;;;5055587;28;20029;-80
2023/06/24 10:43:26;;;;;;;5.13;2.03;;;;;;;;;;5037009;28;20091;-80
2023/06/24 10:45:53;;;;;;;4.00;1.95;;;;;;;;;;5018998;28;20032;-81
2023/06/24 10:48:21;;;;;;;2.20;1.77;;;;;;;;;;5037137;28;20029;-80
2023/06/24 10:50:47;;;;;;;3.22;1.80;;;;;;;;;;5020977;28;20040;-82
2023/06/24 10:53:13;;;;;;;2.53;1.95;;;;;;;;;;5020558;28;20438;-80
2023/06/24 10:55:38;;;;;;;3.78;2.00;;;;;;;;;;5055308;28;20058;-81
2023/06/24 10:58:12;;;;;;;3.65;2.40;;;;;;;;;;5023829;28;20105;-81
2023/06/24 11:00:38;;;;;;;5.28;2.22;;;;;;;;;;5040883;28;20016;-81
2023/06/24 11:03:11;;;;;;;3.50;2.30;;;;;;;;;;5057258;28;20383;-81
2023/06/24 11:05:46;;;;;;;3.03;1.93;;;;;;;;;;5040863;28;20487;-81
2023/06/24 11:08:11;;;;;;;2.28;2.00;;;;;;;;;;5057271;28;20060;-81
2023/06/24 11:10:47;;;;;;;3.30;2.40;;;;;;;;;;5057360;28;20060;-81
2023/06/24 11:13:13;;;;;;;3.50;2.10;;;;;;;;;;5057147;28;20029;-82
2023/06/24 11:15:42;;;;;;;2.95;2.20;;;;;;;;;;5056702;28;20025;-82
2023/06/24 11:18:09;;;;;;;2.05;1.85;;;;;;;;;;5056750;28;20071;-81
2023/06/24 11:20:38;;;;;;;3.25;2.15;;;;;;;;;;5074386;28;20028;-81
2023/06/24 11:23:10;;;;;;;2.40;1.90;;;;;;;;;;5074424;28;20035;-81
2023/06/24 11:25:43;;;;;;;3.10;2.17;;;;;;;;;;5040274;28;20158;-81
2023/06/24 11:28:18;;;;;;;5.10;2.15;;;;;;;;;;5056663;28;20494;-82
2023/06/24 11:30:43;;;;;;;3.33;2.00;;;;;;;;;;5057069;28;20035;-81
2023/06/24 11:33:09;;;;;;;2.08;1.88;;;;;;;;;;5074722;28;20024;-82
2023/06/24 11:35:36;;;;;;;3.38;2.30;;;;;;;;;;5075130;28;20031;-82
2023/06/24 11:38:01;;;;;;;2.25;2.00;;;;;;;;;;5056953;28;20075;-82
2023/06/24 11:40:27;;;;;;;4.07;2.08;;;;;;;;;;5074917;28;20111;-81
2023/06/24 11:42:52;;;;;;;2.20;2.00;;;;;;;;;;5056846;28;20540;-81
2023/06/24 11:45:21;;;;;;;2.83;2.30;;;;;;;;;;5057114;28;20024;-81
2023/06/24 11:47:46;;;;;;;2.45;2.17;;;;;;;;;;5056701;28;20028;-81
2023/06/24 11:50:11;;;;;;;6.60;2.20;;;;;;;;;;5074363;28;20024;-81
2023/06/24 11:52:49;;;;;;;3.30;2.00;;;;;;;;;;5056418;28;20029;-82
2023/06/24 11:55:19;;;;;;;3.42;1.98;;;;;;;;;;5056282;28;20028;-82
2023/06/24 11:58:02;;;;;;;3.10;2.20;;;;;;;;;;5056297;28;20467;-81
2023/06/24 12:00:31;;;;;;;4.47;2.20;;;;;;;;;;5056511;28;20028;-82
2023/06/24 12:03:05;;;;;;;3.38;2.28;;;;;;;;;;5056398;28;20021;-82
2023/06/24 12:05:32;;;;;;;4.10;2.08;;;;;;;;;;5056182;28;20054;-82
2023/06/24 12:07:59;;;;;;;2.45;2.10;;;;;;;;;;5074082;28;20025;-82
2023/06/24 12:10:25;;;;;;;3.45;2.00;;;;;;;;;;5074046;28;20028;-82
2023/06/24 12:12:51;;;;;;;2.45;2.08;;;;;;;;;;5055860;28;20483;-82
2023/06/24 12:15:16;;;;;;;2.38;2.17;;;;;;;;;;5056210;28;20029;-82
2023/06/24 12:17:42;;;;;;;5.47;2.30;;;;;;;;;;5055454;28;20037;-82
2023/06/24 12:20:08;;;;;;;3.05;2.30;;;;;;;;;;5055531;28;20025;-82
2023/06/24 12:22:33;;;;;;;2.90;2.15;;;;;;;;;;5055748;28;20040;-82
2023/06/24 12:24:58;;;;;;;5.25;2.20;;;;;;;;;;5073384;28;20037;-82
2023/06/24 12:27:24;;;;;;;3.80;2.40;;;;;;;;;;5073749;28;20040;-82
2023/06/24 12:29:49;;;;;;;5.93;2.40;;;;;;;;;;5055748;28;20033;-82
2023/06/24 12:32:15;;;;;;;2.85;1.98;;;;;;;;;;5055845;28;20091;-82
2023/06/24 12:34:40;;;;;;;2.63;2.10;;;;;;;;;;5055632;28;20101;-83
2023/06/24 12:37:05;;;;;;;3.42;2.10;;;;;;;;;;5022520;28;20124;-82
2023/06/24 12:39:31;;;;;;;2.78;2.20;;;;;;;;;;5073796;28;20031;-82
2023/06/24 12:41:56;;;;;;;2.42;2.03;;;;;;;;;;5055586;28;20052;-82
2023/06/24 12:44:21;;;;;;;3.53;2.20;;;;;;;;;;5073542;28;20095;-82
2023/06/24 12:46:47;;;;;;;3.78;2.30;;;;;;;;;;5073550;28;20032;-81
2023/06/24 12:49:12;;;;;;;2.28;2.05;;;;;;;;;;5073939;28;20031;-81
2023/06/24 12:51:38;;;;;;;3.78;2.15;;;;;;;;;;5038814;28;20123;-81
2023/06/24 12:54:03;;;;;;;2.15;1.95;;;;;;;;;;5055336;28;20476;-80
2023/06/24 12:56:29;;;;;;;2.85;2.00;;;;;;;;;;5073410;28;20028;-80
2023/06/24 12:58:54;;;;;;;2.60;2.30;;;;;;;;;;5045146;28;20506;-80
2023/06/24 13:01:19;;;;;;;2.33;2.13;;;;;;;;;;5035185;28;20089;-81
2023/06/24 13:03:45;;;;;;;2.75;2.10;;;;;;;;;;5053298;28;20029;-80
2023/06/24 13:06:10;;;;;;;4.88;2.20;;;;;;;;;;5053184;28;20033;-80
2023/06/24 13:08:36;;;;;;;2.78;2.30;;;;;;;;;;5035055;28;20029;-80
2023/06/24 13:11:01;;;;;;;2.17;1.98;;;;;;;;;;5035385;28;20055;-80
2023/06/24 13:13:26;;;;;;;2.70;1.95;;;;;;;;;;5053037;28;20040;-80
2023/06/24 13:15:52;;;;;;;3.05;2.30;;;;;;;;;;5053283;28;20028;-81
2023/06/24 13:18:20;;;;;;;2.92;2.40;;;;;;;;;;5053351;28;20036;-80
2023/06/24 13:20:45;;;;;;;4.10;2.10;;;;;;;;;;5053539;28;20033;-80
2023/06/24 13:23:10;;;;;;;2.35;2.15;;;;;;;;;;5035814;28;20436;-80
2023/06/24 13:25:36;;;;;;;4.30;2.50;;;;;;;;;;5035057;28;20388;-80
2023/06/24 13:28:02;;;;;;;2.30;2.10;;;;;;;;;;5035265;28;20384;-81
2023/06/24 13:30:28;;;;;;;2.53;2.22;;;;;;;;;;5035366;28;20033;-80
2023/06/24 13:32:53;;;;;;;2.72;2.20;;;;;;;;;;5052894;28;20052;-80
2023/06/24 13:35:18;;;;;;;2.10;1.90;;;;;;;;;;5053231;28;20088;-80
2023/06/24 13:37:44;;;;;;;2.58;2.10;;;;;;;;;;5018764;28;20032;-80
2023/06/24 13:40:10;;;;;;;2.70;2.10;;;;;;;;;;5053196;28;20053;-80
2023/06/24 13:42:35;;;;;;;2.22;2.03;;;;;;;;;;5035069;28;20120;-80
2023/06/24 13:45:01;;;;;;;2.63;2.20;;;;;;;;;;5053113;28;20064;-80
2023/06/24 13:47:26;;;;;;;2.88;2.55;;;;;;;;;;5018786;28;20170;-80
2023/06/24 13:49:52;;;;;;;3.53;2.20;;;;;;;;;;5053226;28;20033;-80
2023/06/24 13:52:17;;;;;;;2.17;1.98;;;;;;;;;;5053907;28;20033;-80
2023/06/24 13:54:43;;;;;;;2.92;2.00;;;;;;;;;;5019954;28;20484;-80
2023/06/24 13:57:08;;;;;;;2.30;2.10;;;;;;;;;;5036387;28;20025;-80
2023/06/24 13:59:34;;;;;;;2.72;2.22;;;;;;;;;;5069276;28;20561;-80
2023/06/24 14:01:59;;;;;;;3.20;2.22;;;;;;;;;;5056011;28;20032;-80
2023/06/24 14:04:24;;;;;;;2.63;2.20;;;;;;;;;;5073693;28;20028;-79
2023/06/24 14:06:50;;;;;;;2.60;2.40;;;;;;;;;;5055584;28;20082;-80
2023/06/24 14:09:15;;;;;;;2.42;2.08;;;;;;;;;;5074060;28;20036;-80
2023/06/24 14:11:41;;;;;;;2.40;2.20;;;;;;;;;;5073384;28;20052;-80
2023/06/24 14:14:06;;;;;;;2.92;2.10;;;;;;;;;;5073458;28;20556;-80
2023/06/24 14:16:31;;;;;;;2.25;2.05;;;;;;;;;;5073299;28;20028;-79
2023/06/24 14:18:57;;;;;;;2.90;2.25;;;;;;;;;;5073257;28;20178;-79
2023/06/24 14:21:22;;;;;;;2.65;2.00;;;;;;;;;;5075511;28;20032;-80
2023/06/24 14:23:47;;;;;;;2.45;2.25;;;;;;;;;;5076205;28;20120;-79
2023/06/24 14:26:13;;;;;;;2.55;2.15;;;;;;;;;;5059095;28;20032;-80
2023/06/24 14:28:38;;;;;;;2.47;1.95;;;;;;;;;;5058183;28;20391;-79
2023/06/24 14:31:04;;;;;;;2.30;2.10;;;;;;;;;;5058153;28;20410;-80
2023/06/24 14:33:29;;;;;;;2.80;2.10;;;;;;;;;;5041641;28;20086;-80
2023/06/24 14:35:54;;;;;;;3.17;2.38;;;;;;;;;;5058389;28;20036;-80
2023/06/24 14:38:20;;;;;;;2.40;2.20;;;;;;;;;;5076151;28;20039;-80
2023/06/24 14:40:45;;;;;;;2.50;2.28;;;;;;;;;;5057856;28;20036;-79